createdAt,value
2017-04-05T00:00:02.770Z,7.5
2017-04-05T00:05:03.264Z,7.4
2017-04-05T00:10:03.086Z,7.1
2017-04-05T00:15:02.672Z,7.1
2017-04-05T00:20:03.335Z,6.6
2017-04-05T00:25:02.990Z,7.0
2017-04-05T00:30:02.644Z,7.0
2017-04-05T00:35:02.461Z,7.1
2017-04-05T00:40:03.127Z,7.1
2017-04-05T00:45:09.781Z,7.4
2017-04-05T00:50:03.401Z,7.5
2017-04-05T00:55:03.215Z,7.4
2017-04-05T01:00:03.028Z,7.4
2017-04-05T01:05:02.993Z,7.1
2017-04-05T01:10:02.648Z,6.9
2017-04-05T01:15:03.294Z,6.9
2017-04-05T01:20:02.928Z,6.9
2017-04-05T01:25:02.667Z,6.6
2017-04-05T01:30:02.561Z,6.5
2017-04-05T01:35:03.205Z,6.4
2017-04-05T01:40:02.886Z,6.4
2017-04-05T01:45:02.631Z,6.4
2017-04-05T01:50:03.396Z,6.4
2017-04-05T01:55:03.077Z,6.1
2017-04-05T02:00:02.724Z,6.1
2017-04-05T02:05:03.631Z,6.1
2017-04-05T02:10:03.411Z,6.4
2017-04-05T02:15:03.231Z,6.4
2017-04-05T02:20:02.853Z,5.9
2017-04-05T02:25:02.568Z,5.8
2017-04-05T02:30:03.338Z,5.4
2017-04-05T02:35:03.141Z,5.3
2017-04-05T02:40:02.810Z,5.4
2017-04-05T02:45:02.411Z,5.4
2017-04-05T02:50:03.094Z,5.3
2017-04-05T02:55:02.732Z,5.3
2017-04-05T03:00:02.461Z,5.0
2017-04-05T03:05:03.160Z,5.0
2017-04-05T03:10:02.858Z,5.0
2017-04-05T03:15:02.521Z,4.8
2017-04-05T03:20:03.306Z,4.5
2017-04-05T03:25:02.991Z,4.5
2017-04-05T03:30:02.585Z,4.5
2017-04-05T03:35:03.313Z,4.5
2017-04-05T03:40:03.116Z,4.5
2017-04-05T03:45:02.871Z,4.8
2017-04-05T03:50:02.622Z,5.0
2017-04-05T03:55:03.511Z,5.0
2017-04-05T04:00:03.389Z,5.0
2017-04-05T04:05:03.160Z,5.3
2017-04-05T04:10:02.845Z,5.3
2017-04-05T04:15:02.567Z,5.0
2017-04-05T04:20:03.332Z,5.0
2017-04-05T04:25:03.012Z,5.0
2017-04-05T04:30:02.847Z,5.0
2017-04-05T04:35:02.428Z,5.0
2017-04-05T04:40:03.169Z,5.0
2017-04-05T04:45:02.925Z,5.3
2017-04-05T04:50:02.678Z,5.4
2017-04-05T04:55:03.380Z,5.5
2017-04-05T05:00:03.220Z,5.4
2017-04-05T05:05:02.963Z,5.4
2017-04-05T05:10:02.665Z,5.4
2017-04-05T05:15:03.289Z,5.3
2017-04-05T05:20:03.023Z,5.4
2017-04-05T05:25:02.778Z,5.8
2017-04-05T05:30:02.410Z,5.8
2017-04-05T05:35:03.079Z,6.0
2017-04-05T05:40:02.852Z,6.1
2017-04-05T05:45:02.673Z,6.4
2017-04-05T05:50:02.433Z,6.5
2017-04-05T05:55:03.083Z,6.5
2017-04-05T06:00:02.810Z,6.6
2017-04-05T06:05:02.636Z,6.6
2017-04-05T06:10:03.137Z,6.6
2017-04-05T06:15:02.861Z,7.0
2017-04-05T06:20:02.534Z,7.0
2017-04-05T06:25:03.294Z,6.9
2017-04-05T06:30:03.020Z,6.9
2017-04-05T06:35:02.706Z,6.9
2017-04-05T06:40:02.450Z,7.0
2017-04-05T06:45:03.144Z,7.1
2017-04-05T06:50:02.771Z,7.4
2017-04-05T06:55:02.616Z,7.5
2017-04-05T07:00:03.212Z,7.9
2017-04-05T07:05:02.902Z,8.1
2017-04-05T07:10:02.758Z,8.5
2017-04-05T07:15:02.550Z,8.3
2017-04-05T07:20:03.376Z,8.6
2017-04-05T07:25:03.234Z,9.0
2017-04-05T07:30:02.903Z,9.3
2017-04-05T07:35:02.578Z,9.5
2017-04-05T07:40:03.313Z,9.3
2017-04-05T07:45:03.147Z,9.5
2017-04-05T07:50:02.960Z,9.6
2017-04-05T07:55:02.597Z,9.8
2017-04-05T08:00:02.502Z,10.0
2017-04-05T08:05:03.429Z,10.3
2017-04-05T08:10:03.432Z,10.5
2017-04-05T08:15:03.166Z,10.5
2017-04-05T08:20:02.910Z,10.8
2017-04-05T08:25:02.675Z,11.3
2017-04-05T08:30:02.542Z,11.0
2017-04-05T08:35:03.191Z,11.3
2017-04-05T08:40:02.892Z,11.3
2017-04-05T08:45:02.574Z,11.6
2017-04-05T08:50:03.203Z,11.6
2017-04-05T08:55:02.998Z,12.1
2017-04-05T09:00:02.800Z,13.1
2017-04-05T09:05:02.552Z,12.5
2017-04-05T09:10:03.525Z,12.8
2017-04-05T09:15:03.308Z,14.3
2017-04-05T09:20:03.044Z,14.1
2017-04-05T09:25:02.833Z,12.8
2017-04-05T09:30:02.457Z,14.1
2017-04-05T09:35:03.169Z,13.8
2017-04-05T09:40:03.191Z,13.6
2017-04-05T09:45:02.989Z,12.8
2017-04-05T09:50:02.748Z,13.1
2017-04-05T09:55:02.569Z,13.6
2017-04-05T10:00:02.455Z,14.0
2017-04-05T10:05:03.284Z,13.8
2017-04-05T10:10:03.210Z,13.6
2017-04-05T10:15:03.012Z,13.5
2017-04-05T10:20:02.813Z,14.1
2017-04-05T10:25:02.744Z,14.6
2017-04-05T10:30:02.701Z,13.8
2017-04-05T10:35:02.562Z,13.1
2017-04-05T10:40:02.835Z,15.6
2017-04-05T10:45:03.393Z,15.5
2017-04-05T10:50:03.309Z,15.0
2017-04-05T10:55:02.926Z,16.2
2017-04-05T11:00:02.883Z,15.5
2017-04-05T11:05:02.633Z,16.3
2017-04-05T11:10:02.542Z,16.3
2017-04-05T11:15:02.699Z,16.2
2017-04-05T11:20:03.328Z,16.7
2017-04-05T11:25:03.271Z,16.0
2017-04-05T11:30:02.461Z,15.8
2017-04-05T11:35:03.171Z,14.3
2017-04-05T11:40:03.016Z,16.0
2017-04-05T11:45:02.755Z,15.1
2017-04-05T11:50:02.411Z,15.8
2017-04-05T11:55:03.078Z,14.6
2017-04-05T12:00:02.939Z,14.3
2017-04-05T12:05:02.953Z,14.3
2017-04-05T12:10:02.971Z,14.1
2017-04-05T12:15:02.872Z,14.3
2017-04-05T12:20:02.677Z,14.6
2017-04-05T12:25:02.474Z,14.3
2017-04-05T12:30:03.374Z,15.6
2017-04-05T12:35:03.126Z,15.0
2017-04-05T12:40:03.195Z,15.8
2017-04-05T12:45:03.076Z,15.6
2017-04-05T12:50:02.986Z,14.3
2017-04-05T12:55:02.744Z,14.0
2017-04-05T13:00:02.660Z,14.0
2017-04-05T13:05:03.422Z,13.6
2017-04-05T13:10:02.470Z,13.8
2017-04-05T13:15:02.536Z,14.3
2017-04-05T13:20:03.044Z,14.6
2017-04-05T13:25:03.269Z,14.3
2017-04-05T13:30:02.957Z,14.6
2017-04-05T13:35:03.180Z,15.5
2017-04-05T13:40:02.494Z,14.3
2017-04-05T13:45:02.804Z,14.6
2017-04-05T13:50:02.532Z,16.2
2017-04-05T13:55:02.463Z,14.3
2017-04-05T14:00:02.683Z,13.6
2017-04-05T14:05:02.954Z,14.0
2017-04-05T14:10:02.854Z,14.6
2017-04-05T14:15:03.199Z,14.1
2017-04-05T14:20:03.230Z,13.5
2017-04-05T14:25:03.190Z,13.5
2017-04-05T14:30:02.586Z,13.6
2017-04-05T14:35:02.777Z,13.6
2017-04-05T14:40:03.300Z,14.3
2017-04-05T14:45:03.042Z,13.3
2017-04-05T14:50:02.712Z,13.5
2017-04-05T14:55:03.199Z,12.5
2017-04-05T15:00:03.149Z,12.5
2017-04-05T15:05:03.214Z,12.5
2017-04-05T15:10:02.962Z,12.1
2017-04-05T15:15:02.507Z,12.0
2017-04-05T15:20:02.832Z,11.8
2017-04-05T15:25:03.310Z,11.6
2017-04-05T15:30:03.307Z,11.8
2017-04-05T15:35:03.381Z,11.8
2017-04-05T15:40:03.227Z,11.6
2017-04-05T15:45:02.899Z,11.3
2017-04-05T15:50:02.703Z,11.3
2017-04-05T15:55:03.300Z,11.3
2017-04-05T16:00:02.878Z,11.3
2017-04-05T16:05:02.534Z,11.1
2017-04-05T16:10:03.336Z,11.1
2017-04-05T16:15:03.087Z,11.0
2017-04-05T16:20:02.726Z,10.8
2017-04-05T16:25:02.602Z,10.8
2017-04-05T16:30:02.890Z,10.8
2017-04-05T16:35:02.659Z,10.6
2017-04-05T16:40:03.399Z,10.5
2017-04-05T16:45:03.049Z,10.3
2017-04-05T16:50:02.787Z,10.5
2017-04-05T16:55:02.452Z,10.5
2017-04-05T17:00:03.143Z,10.6
2017-04-05T17:05:02.942Z,10.8
2017-04-05T17:10:02.620Z,11.3
2017-04-05T17:15:03.507Z,10.8
2017-04-05T17:20:03.194Z,10.6
2017-04-05T17:25:02.976Z,10.5
2017-04-05T17:30:02.648Z,10.3
2017-04-05T17:35:03.398Z,10.1
2017-04-05T17:40:03.128Z,9.8
2017-04-05T17:45:02.886Z,9.6
2017-04-05T17:50:02.474Z,9.5
2017-04-05T17:55:03.065Z,9.5
2017-04-05T18:00:02.868Z,9.5
2017-04-05T18:05:02.693Z,9.5
2017-04-05T18:10:02.566Z,9.3
2017-04-05T18:15:03.212Z,9.3
2017-04-05T18:20:02.913Z,9.1
2017-04-05T18:25:02.718Z,9.1
2017-04-05T18:30:02.535Z,9.0
2017-04-05T18:35:03.324Z,9.0
2017-04-05T18:40:03.169Z,9.1
2017-04-05T18:45:02.949Z,9.3
2017-04-05T18:50:02.671Z,9.3
2017-04-05T18:55:02.526Z,9.3
2017-04-05T19:00:03.324Z,9.3
2017-04-05T19:05:02.973Z,9.1
2017-04-05T19:10:02.724Z,9.0
2017-04-05T19:15:03.476Z,8.8
2017-04-05T19:20:03.245Z,8.5
2017-04-05T19:25:03.102Z,8.3
2017-04-05T19:30:02.814Z,8.3
2017-04-05T19:35:02.567Z,8.1
2017-04-05T19:40:03.432Z,8.1
2017-04-05T19:45:03.279Z,8.1
2017-04-05T19:50:03.125Z,8.1
2017-04-05T19:55:02.920Z,7.9
2017-04-05T20:00:02.586Z,7.6
2017-04-05T20:05:03.348Z,7.5
2017-04-05T20:10:03.025Z,7.5
2017-04-05T20:15:02.672Z,7.4
2017-04-05T20:20:02.560Z,7.5
2017-04-05T20:25:03.378Z,7.5
2017-04-05T20:30:03.074Z,7.5
2017-04-05T20:35:02.728Z,7.5
2017-04-05T20:40:03.420Z,7.4
2017-04-05T20:45:03.121Z,7.1
2017-04-05T20:50:02.926Z,7.0
2017-04-05T20:55:02.719Z,7.1
2017-04-05T21:00:03.507Z,7.1
2017-04-05T21:05:03.127Z,7.1
2017-04-05T21:10:02.796Z,7.0
2017-04-05T21:15:02.546Z,7.0
2017-04-05T21:20:03.336Z,6.9
2017-04-05T21:25:03.103Z,6.6
2017-04-05T21:30:03.006Z,6.6
2017-04-05T21:35:02.753Z,6.5
2017-04-05T21:40:02.543Z,6.5
2017-04-05T21:45:03.300Z,6.5
2017-04-05T21:50:03.031Z,6.5
2017-04-05T21:55:02.815Z,6.4
2017-04-05T22:00:02.485Z,6.1
2017-04-05T22:05:03.269Z,6.0
2017-04-05T22:10:02.967Z,6.0
2017-04-05T22:15:02.701Z,5.9
2017-04-05T22:20:03.668Z,6.0
2017-04-05T22:25:02.431Z,5.9
2017-04-05T22:30:03.217Z,5.8
2017-04-05T22:35:02.808Z,5.8
2017-04-05T22:40:02.513Z,5.9
2017-04-05T22:45:03.144Z,5.5
2017-04-05T22:50:02.733Z,5.5
2017-04-05T22:55:02.436Z,5.5
2017-04-05T23:00:03.249Z,5.4
2017-04-05T23:05:03.127Z,5.4
2017-04-05T23:10:02.824Z,5.4
2017-04-05T23:15:02.482Z,5.3
2017-04-05T23:20:03.164Z,5.3
2017-04-05T23:25:02.796Z,5.3
2017-04-05T23:30:02.538Z,5.3
2017-04-05T23:35:03.157Z,5.3
2017-04-05T23:40:03.007Z,5.0
2017-04-05T23:45:02.798Z,5.0
2017-04-05T23:50:02.617Z,5.0
2017-04-05T23:55:03.410Z,5.0
